Time;durP1;ratioP1;P1;durP2;ratioP2;P2;SDS_P1;SDS_P2;PMS_P1;PMS_P2;Temp;Humidity;BMP_temperature;BMP_pressure;BME280_temperature;BME280_humidity;BME280_pressure;Samples;Min_cycle;Max_cycle;Signal;HPM_P1;HPM_P2
2023/04/07 00:00:58;;;;;;;7.47;2.58;;;;;;;;;;5031900;28;20079;-75
2023/04/07 00:03:24;;;;;;;3.92;2.08;;;;;;;;;;5031606;28;20029;-76
2023/04/07 00:05:50;;;;;;;4.88;2.20;;;;;;;;;;5031595;28;20378;-76
2023/04/07 00:08:17;;;;;;;4.40;2.17;;;;;;;;;;5031671;28;20464;-76
2023/04/07 00:10:43;;;;;;;4.05;1.80;;;;;;;;;;5031634;28;20029;-77
2023/04/07 00:13:09;;;;;;;4.97;2.30;;;;;;;;;;5031285;28;20744;-75
2023/04/07 00:15:35;;;;;;;3.70;2.00;;;;;;;;;;5031543;28;20033;-77
2023/04/07 00:18:01;;;;;;;8.73;2.25;;;;;;;;;;5031361;28;20022;-76
2023/04/07 00:20:27;;;;;;;6.10;1.90;;;;;;;;;;5031404;28;20036;-76
2023/04/07 00:22:53;;;;;;;4.75;1.80;;;;;;;;;;5031394;28;20040;-76
2023/04/07 00:25:19;;;;;;;5.70;1.80;;;;;;;;;;5031366;28;20018;-77
2023/04/07 00:27:45;;;;;;;6.72;1.70;;;;;;;;;;5031245;28;20600;-76
2023/04/07 00:30:11;;;;;;;5.70;1.80;;;;;;;;;;5031322;28;20065;-76
2023/04/07 00:32:37;;;;;;;6.72;1.90;;;;;;;;;;5031669;28;20032;-75
2023/04/07 00:35:04;;;;;;;3.20;1.80;;;;;;;;;;5031243;28;20025;-76
2023/04/07 00:37:30;;;;;;;9.38;1.83;;;;;;;;;;5031437;28;20037;-75
2023/04/07 00:39:58;;;;;;;5.22;2.08;;;;;;;;;;5031504;28;20021;-76
2023/04/07 00:42:24;;;;;;;5.03;2.10;;;;;;;;;;5031139;28;20057;-77
2023/04/07 00:44:50;;;;;;;6.00;1.73;;;;;;;;;;5031243;28;20386;-76
2023/04/07 00:47:16;;;;;;;7.97;1.90;;;;;;;;;;5031123;28;20083;-77
2023/04/07 00:49:43;;;;;;;8.45;1.85;;;;;;;;;;5031294;28;20079;-77
2023/04/07 00:52:10;;;;;;;8.50;1.73;;;;;;;;;;5031261;28;20029;-77
2023/04/07 00:54:36;;;;;;;3.67;1.67;;;;;;;;;;5031319;28;20018;-75
2023/04/07 00:57:02;;;;;;;3.40;1.42;;;;;;;;;;5031157;28;20083;-76
2023/04/07 00:59:30;;;;;;;8.00;1.90;;;;;;;;;;5031040;28;20029;-75
2023/04/07 01:02:07;;;;;;;4.57;2.30;;;;;;;;;;5030904;28;20021;-77
2023/04/07 01:04:39;;;;;;;9.68;1.75;;;;;;;;;;5031003;28;20075;-77
2023/04/07 01:07:09;;;;;;;4.80;1.75;;;;;;;;;;5030912;28;20028;-75
2023/04/07 01:09:42;;;;;;;3.58;1.63;;;;;;;;;;5030924;28;20029;-76
2023/04/07 01:12:17;;;;;;;7.32;1.90;;;;;;;;;;5030911;28;20029;-76
2023/04/07 01:14:49;;;;;;;3.58;1.48;;;;;;;;;;5031045;28;20029;-75
2023/04/07 01:17:16;;;;;;;4.68;1.35;;;;;;;;;;5031039;28;20385;-76
2023/04/07 01:19:44;;;;;;;4.50;1.40;;;;;;;;;;5030878;28;20032;-76
2023/04/07 01:22:12;;;;;;;8.70;2.15;;;;;;;;;;5031103;28;20048;-75
2023/04/07 01:24:46;;;;;;;5.30;1.40;;;;;;;;;;5030968;28;20089;-75
2023/04/07 01:27:20;;;;;;;6.45;1.45;;;;;;;;;;5030980;28;20075;-77
2023/04/07 01:29:49;;;;;;;5.47;1.42;;;;;;;;;;5030887;28;20028;-75
2023/04/07 01:32:19;;;;;;;3.75;1.30;;;;;;;;;;5032964;28;20056;-76
2023/04/07 01:34:47;;;;;;;3.45;1.45;;;;;;;;;;5034733;28;20017;-75
2023/04/07 01:37:14;;;;;;;5.00;1.58;;;;;;;;;;5034637;28;20022;-77
2023/04/07 01:39:40;;;;;;;5.93;1.38;;;;;;;;;;5034541;28;20071;-74
2023/04/07 01:42:07;;;;;;;3.55;1.40;;;;;;;;;;5034124;28;20049;-76
2023/04/07 01:44:34;;;;;;;7.25;1.63;;;;;;;;;;5034179;28;20538;-77
2023/04/07 01:47:01;;;;;;;2.88;1.48;;;;;;;;;;5034362;28;20394;-76
2023/04/07 01:49:28;;;;;;;3.78;1.55;;;;;;;;;;5034226;28;20022;-76
2023/04/07 01:51:54;;;;;;;8.23;2.08;;;;;;;;;;5034041;28;20033;-76
2023/04/07 01:54:21;;;;;;;3.60;1.10;;;;;;;;;;5034060;28;20033;-77
2023/04/07 01:56:47;;;;;;;7.97;1.70;;;;;;;;;;5034194;28;20108;-76
2023/04/07 01:59:13;;;;;;;12.02;2.42;;;;;;;;;;5033950;28;20490;-76
2023/04/07 02:01:39;;;;;;;8.50;1.92;;;;;;;;;;5034042;28;20405;-75
2023/04/07 02:04:22;;;;;;;2.75;1.50;;;;;;;;;;5032507;28;20030;-75
2023/04/07 02:06:51;;;;;;;4.32;1.42;;;;;;;;;;5033723;28;20512;-76
2023/04/07 02:09:19;;;;;;;5.95;1.30;;;;;;;;;;5033879;28;20363;-76
2023/04/07 02:11:46;;;;;;;3.00;1.73;;;;;;;;;;5033854;28;20028;-76
2023/04/07 02:14:13;;;;;;;3.33;1.50;;;;;;;;;;5033722;28;20041;-75
2023/04/07 02:16:40;;;;;;;2.55;1.38;;;;;;;;;;5033727;28;20056;-80
2023/04/07 02:19:07;;;;;;;5.13;1.60;;;;;;;;;;5034191;28;20029;-80
2023/04/07 02:21:35;;;;;;;4.45;1.55;;;;;;;;;;5034063;28;20037;-81
2023/04/07 02:24:02;;;;;;;5.00;1.90;;;;;;;;;;5034533;28;20048;-81
2023/04/07 02:26:32;;;;;;;3.72;1.67;;;;;;;;;;5035718;28;20485;-81
2023/04/07 02:28:58;;;;;;;6.50;1.80;;;;;;;;;;5034908;28;20112;-80
2023/04/07 02:31:24;;;;;;;5.25;1.70;;;;;;;;;;5034850;28;20026;-80
2023/04/07 02:33:50;;;;;;;6.32;1.63;;;;;;;;;;5035203;28;20029;-82
2023/04/07 02:36:16;;;;;;;4.25;1.60;;;;;;;;;;5035497;28;20041;-79
2023/04/07 02:38:42;;;;;;;5.22;1.48;;;;;;;;;;5035251;28;20034;-81
2023/04/07 02:41:08;;;;;;;5.55;1.55;;;;;;;;;;5033492;28;20027;-82
2023/04/07 02:43:35;;;;;;;5.55;1.70;;;;;;;;;;5034378;28;20033;-81
2023/04/07 02:46:01;;;;;;;4.35;1.55;;;;;;;;;;5033630;28;20531;-80
2023/04/07 02:48:27;;;;;;;7.18;1.73;;;;;;;;;;5033866;28;20280;-81
2023/04/07 02:50:53;;;;;;;5.20;1.70;;;;;;;;;;5033379;28;20028;-79
2023/04/07 02:53:19;;;;;;;6.88;2.72;;;;;;;;;;5033575;28;20021;-80
2023/04/07 02:55:45;;;;;;;7.18;1.80;;;;;;;;;;5033176;28;20030;-79
2023/04/07 02:58:11;;;;;;;4.15;1.25;;;;;;;;;;5033273;28;20113;-81
2023/04/07 03:00:37;;;;;;;7.35;1.73;;;;;;;;;;5033335;28;20052;-80
2023/04/07 03:03:03;;;;;;;6.20;1.95;;;;;;;;;;5033074;28;20037;-80
2023/04/07 03:05:29;;;;;;;6.35;1.60;;;;;;;;;;5033009;28;20022;-79
2023/04/07 03:07:55;;;;;;;6.53;1.98;;;;;;;;;;5032796;28;20026;-80
2023/04/07 03:10:22;;;;;;;7.05;1.95;;;;;;;;;;5031367;28;20036;-80
2023/04/07 03:12:48;;;;;;;3.65;2.00;;;;;;;;;;5032701;28;20025;-79
2023/04/07 03:15:14;;;;;;;7.63;1.88;;;;;;;;;;5032601;28;20025;-80
2023/04/07 03:17:40;;;;;;;8.50;2.30;;;;;;;;;;5032623;28;20467;-81
2023/04/07 03:20:07;;;;;;;4.90;1.90;;;;;;;;;;5032757;28;20450;-81
2023/04/07 03:22:33;;;;;;;7.32;2.53;;;;;;;;;;5032803;28;20083;-80
2023/04/07 03:24:59;;;;;;;6.68;1.75;;;;;;;;;;5032639;28;20048;-81
2023/04/07 03:27:25;;;;;;;9.98;2.13;;;;;;;;;;5032248;28;20021;-80
2023/04/07 03:29:51;;;;;;;6.03;1.60;;;;;;;;;;5032803;28;20022;-80
2023/04/07 03:32:17;;;;;;;7.30;2.00;;;;;;;;;;5034949;28;20107;-82
2023/04/07 03:34:44;;;;;;;10.68;1.83;;;;;;;;;;5038441;28;20032;-81
2023/04/07 03:37:10;;;;;;;11.02;2.20;;;;;;;;;;5035797;28;20119;-80
2023/04/07 03:39:36;;;;;;;6.88;1.90;;;;;;;;;;5035435;28;20029;-79
2023/04/07 03:42:02;;;;;;;4.47;2.13;;;;;;;;;;5038092;28;20076;-80
2023/04/07 03:44:28;;;;;;;11.68;1.92;;;;;;;;;;5033125;28;20060;-80
2023/04/07 03:46:54;;;;;;;7.53;1.63;;;;;;;;;;5031199;28;20055;-81
2023/04/07 03:49:21;;;;;;;7.05;2.00;;;;;;;;;;5031008;28;20068;-80
2023/04/07 03:51:47;;;;;;;4.20;1.83;;;;;;;;;;5032313;28;20056;-81
2023/04/07 03:54:13;;;;;;;9.93;2.05;;;;;;;;;;5031460;28;20393;-81
2023/04/07 03:56:39;;;;;;;7.50;2.30;;;;;;;;;;5032010;28;20367;-80
2023/04/07 03:59:05;;;;;;;8.75;2.30;;;;;;;;;;5031850;28;20060;-82
2023/04/07 04:01:31;;;;;;;10.02;2.63;;;;;;;;;;5031764;28;20036;-79
2023/04/07 04:03:57;;;;;;;9.70;1.90;;;;;;;;;;5031835;28;20033;-80
2023/04/07 04:06:25;;;;;;;6.78;1.90;;;;;;;;;;5031894;28;20105;-80
2023/04/07 04:08:51;;;;;;;7.28;1.90;;;;;;;;;;5032183;28;20040;-80
2023/04/07 04:11:17;;;;;;;6.38;1.95;;;;;;;;;;5031669;28;20105;-80
2023/04/07 04:13:43;;;;;;;6.53;1.88;;;;;;;;;;5031629;28;20021;-80
2023/04/07 04:16:09;;;;;;;6.75;2.15;;;;;;;;;;5031567;28;20054;-81
2023/04/07 04:18:35;;;;;;;9.38;1.85;;;;;;;;;;5031722;28;20029;-80
2023/04/07 04:21:01;;;;;;;7.32;2.00;;;;;;;;;;5031610;28;20053;-81
2023/04/07 04:23:27;;;;;;;2.90;1.83;;;;;;;;;;5031484;28;20473;-80
2023/04/07 04:25:53;;;;;;;5.15;1.92;;;;;;;;;;5031628;28;20553;-81
2023/04/07 04:28:19;;;;;;;7.00;2.05;;;;;;;;;;5031553;28;20024;-81
2023/04/07 04:30:47;;;;;;;8.68;2.47;;;;;;;;;;5031676;28;20076;-81
2023/04/07 04:33:13;;;;;;;8.25;2.15;;;;;;;;;;5031567;28;20025;-81
2023/04/07 04:35:39;;;;;;;5.07;2.22;;;;;;;;;;5031320;28;20025;-82
2023/04/07 04:38:05;;;;;;;5.05;1.88;;;;;;;;;;5031255;28;20051;-80
2023/04/07 04:40:31;;;;;;;6.03;1.50;;;;;;;;;;5031305;28;20029;-81
2023/04/07 04:42:57;;;;;;;7.97;2.00;;;;;;;;;;5031340;28;20133;-81
2023/04/07 04:45:23;;;;;;;8.70;2.17;;;;;;;;;;5031140;28;20022;-80
2023/04/07 04:47:49;;;;;;;5.10;2.63;;;;;;;;;;5031199;28;20049;-80
2023/04/07 04:50:16;;;;;;;6.47;2.15;;;;;;;;;;5031406;28;20079;-81
2023/04/07 04:52:42;;;;;;;7.20;2.25;;;;;;;;;;5029974;28;20083;-80
2023/04/07 04:55:08;;;;;;;10.75;2.45;;;;;;;;;;5031505;28;20022;-81
2023/04/07 04:57:35;;;;;;;8.13;2.13;;;;;;;;;;5031424;28;20029;-81
2023/04/07 05:00:01;;;;;;;6.75;2.20;;;;;;;;;;5031483;28;20021;-80
2023/04/07 05:02:27;;;;;;;9.90;2.00;;;;;;;;;;5031053;28;20120;-81
2023/04/07 05:04:54;;;;;;;6.75;2.17;;;;;;;;;;5031487;28;20105;-81
2023/04/07 05:07:20;;;;;;;5.38;2.00;;;;;;;;;;5034624;28;20021;-81
2023/04/07 05:09:46;;;;;;;9.48;3.10;;;;;;;;;;5034928;28;20075;-81
2023/04/07 05:12:12;;;;;;;6.97;2.35;;;;;;;;;;5035056;28;20029;-80
2023/04/07 05:14:38;;;;;;;7.50;2.65;;;;;;;;;;5035091;28;20462;-81
2023/04/07 05:17:04;;;;;;;10.95;2.38;;;;;;;;;;5034932;28;20021;-80
2023/04/07 05:19:30;;;;;;;7.95;3.35;;;;;;;;;;5034756;28;20022;-80
2023/04/07 05:21:56;;;;;;;9.15;2.78;;;;;;;;;;5034947;28;20037;-80
2023/04/07 05:24:22;;;;;;;8.93;3.38;;;;;;;;;;5035084;28;20112;-80
2023/04/07 05:26:48;;;;;;;9.18;2.75;;;;;;;;;;5033439;28;20057;-79
2023/04/07 05:29:14;;;;;;;13.10;3.42;;;;;;;;;;5034659;28;20018;-80
2023/04/07 05:31:40;;;;;;;6.93;2.80;;;;;;;;;;5034898;28;20025;-80
2023/04/07 05:34:06;;;;;;;11.60;2.85;;;;;;;;;;5033379;28;20025;-81
2023/04/07 05:36:33;;;;;;;11.15;2.88;;;;;;;;;;5034458;28;20098;-81
2023/04/07 05:38:59;;;;;;;5.53;2.50;;;;;;;;;;5034572;28;20025;-80
2023/04/07 05:41:25;;;;;;;4.82;2.40;;;;;;;;;;5034515;28;20046;-81
2023/04/07 05:43:51;;;;;;;12.10;3.08;;;;;;;;;;5035645;28;20025;-80
2023/04/07 05:46:17;;;;;;;6.20;2.65;;;;;;;;;;5041962;28;20018;-81
2023/04/07 05:48:44;;;;;;;7.97;2.80;;;;;;;;;;5041203;28;20513;-81
2023/04/07 05:51:10;;;;;;;7.90;2.97;;;;;;;;;;5034788;28;20034;-80
2023/04/07 05:53:36;;;;;;;11.63;2.78;;;;;;;;;;5034430;28;20025;-81
2023/04/07 05:56:02;;;;;;;10.23;2.58;;;;;;;;;;5035490;28;20025;-82
2023/04/07 05:58:28;;;;;;;11.25;2.90;;;;;;;;;;5037683;28;20029;-82
2023/04/07 06:00:54;;;;;;;8.52;2.50;;;;;;;;;;5042144;28;20028;-80
2023/04/07 06:03:20;;;;;;;13.73;2.88;;;;;;;;;;5037266;28;20528;-80
2023/04/07 06:05:47;;;;;;;11.43;3.78;;;;;;;;;;5035565;28;20022;-81
2023/04/07 06:08:13;;;;;;;10.90;3.00;;;;;;;;;;5035533;28;20494;-79
2023/04/07 06:10:40;;;;;;;9.18;2.65;;;;;;;;;;5034547;28;20026;-79
2023/04/07 06:13:06;;;;;;;6.43;2.80;;;;;;;;;;5034346;28;20018;-80
2023/04/07 06:15:32;;;;;;;10.50;2.90;;;;;;;;;;5034235;28;20026;-80
2023/04/07 06:17:59;;;;;;;10.52;3.20;;;;;;;;;;5032444;28;20516;-80
2023/04/07 06:20:26;;;;;;;8.63;3.13;;;;;;;;;;5034509;28;20030;-80
2023/04/07 06:22:53;;;;;;;8.23;3.03;;;;;;;;;;5032865;28;20482;-80
2023/04/07 06:25:20;;;;;;;8.65;3.00;;;;;;;;;;5033913;28;20025;-80
2023/04/07 06:27:46;;;;;;;9.20;3.00;;;;;;;;;;5033479;28;20049;-80
2023/04/07 06:30:12;;;;;;;6.38;2.60;;;;;;;;;;5034342;28;20382;-80
2023/04/07 06:32:38;;;;;;;6.70;3.08;;;;;;;;;;5033552;28;20022;-81
2023/04/07 06:35:04;;;;;;;13.57;3.28;;;;;;;;;;5032839;28;20033;-81
2023/04/07 06:37:30;;;;;;;7.22;3.17;;;;;;;;;;5033689;28;20064;-81
2023/04/07 06:39:56;;;;;;;8.63;3.45;;;;;;;;;;5033672;28;20026;-81
2023/04/07 06:42:22;;;;;;;12.60;3.08;;;;;;;;;;5033579;28;20144;-82
2023/04/07 06:44:48;;;;;;;12.15;3.83;;;;;;;;;;5033519;28;20486;-81
2023/04/07 06:47:15;;;;;;;11.10;3.33;;;;;;;;;;5033536;28;20060;-80
2023/04/07 06:49:41;;;;;;;9.30;3.28;;;;;;;;;;5033284;28;20045;-82
2023/04/07 06:52:07;;;;;;;12.18;3.40;;;;;;;;;;5033426;28;20042;-80
2023/04/07 06:54:33;;;;;;;9.95;3.28;;;;;;;;;;5033293;28;20021;-83
2023/04/07 06:57:00;;;;;;;12.90;3.78;;;;;;;;;;5033195;28;20025;-80
2023/04/07 06:59:26;;;;;;;8.60;3.85;;;;;;;;;;5033277;28;20034;-81
2023/04/07 07:01:52;;;;;;;14.90;4.25;;;;;;;;;;5033087;28;20018;-82
2023/04/07 07:04:18;;;;;;;9.27;2.88;;;;;;;;;;5033119;28;20493;-80
2023/04/07 07:06:44;;;;;;;13.18;3.75;;;;;;;;;;5033285;28;20033;-81
2023/04/07 07:09:10;;;;;;;10.57;4.90;;;;;;;;;;5032898;28;20032;-82
2023/04/07 07:11:36;;;;;;;15.40;3.78;;;;;;;;;;5033394;28;20022;-82
2023/04/07 07:14:02;;;;;;;14.25;4.53;;;;;;;;;;5032862;28;20030;-82
2023/04/07 07:16:28;;;;;;;9.15;3.50;;;;;;;;;;5031591;28;20031;-82
2023/04/07 07:18:54;;;;;;;10.90;3.63;;;;;;;;;;5032585;28;20025;-80
2023/04/07 07:21:20;;;;;;;8.02;3.80;;;;;;;;;;5032670;28;20116;-80
2023/04/07 07:23:46;;;;;;;11.98;3.63;;;;;;;;;;5032842;28;20139;-82
2023/04/07 07:26:12;;;;;;;11.07;3.72;;;;;;;;;;5032823;28;20079;-81
2023/04/07 07:28:38;;;;;;;12.13;3.70;;;;;;;;;;5032181;28;20029;-82
2023/04/07 07:31:14;;;;;;;6.72;3.38;;;;;;;;;;5032970;28;20025;-82
2023/04/07 07:33:42;;;;;;;12.80;4.30;;;;;;;;;;5032718;28;20029;-81
2023/04/07 07:36:09;;;;;;;9.88;3.42;;;;;;;;;;5033165;28;20104;-82
2023/04/07 07:38:35;;;;;;;10.10;3.63;;;;;;;;;;5033200;28;20029;-82
2023/04/07 07:41:01;;;;;;;10.00;3.72;;;;;;;;;;5032584;28;20292;-82
2023/04/07 07:43:27;;;;;;;7.80;3.90;;;;;;;;;;5032498;28;20037;-83
2023/04/07 07:45:53;;;;;;;8.02;3.47;;;;;;;;;;5031359;28;20367;-82
2023/04/07 07:48:19;;;;;;;9.32;4.53;;;;;;;;;;5032662;28;20415;-82
2023/04/07 07:50:46;;;;;;;11.98;4.43;;;;;;;;;;5033343;28;20032;-82
2023/04/07 07:53:12;;;;;;;12.90;3.70;;;;;;;;;;5049042;28;20021;-83
2023/04/07 07:55:38;;;;;;;10.73;4.20;;;;;;;;;;5033866;28;20033;-82
2023/04/07 07:58:04;;;;;;;9.98;3.67;;;;;;;;;;5032190;28;20022;-81
2023/04/07 08:00:31;;;;;;;8.32;3.53;;;;;;;;;;5032672;28;20025;-82
2023/04/07 08:02:57;;;;;;;7.95;3.38;;;;;;;;;;5032457;28;20034;-81
2023/04/07 08:05:23;;;;;;;8.40;3.15;;;;;;;;;;5033684;28;20518;-82
2023/04/07 08:07:49;;;;;;;7.55;3.53;;;;;;;;;;5034510;28;20030;-82
2023/04/07 08:10:15;;;;;;;11.57;4.22;;;;;;;;;;5033847;28;20084;-81
2023/04/07 08:12:41;;;;;;;9.52;3.58;;;;;;;;;;5032118;28;20386;-82
2023/04/07 08:15:09;;;;;;;9.95;3.85;;;;;;;;;;5032109;28;20052;-82
2023/04/07 08:17:35;;;;;;;15.43;3.50;;;;;;;;;;5032085;28;20018;-82
2023/04/07 08:20:02;;;;;;;13.93;3.92;;;;;;;;;;5032505;28;20034;-80
2023/04/07 08:22:28;;;;;;;9.80;3.60;;;;;;;;;;5034177;28;20032;-80
2023/04/07 08:24:54;;;;;;;11.00;3.65;;;;;;;;;;5036006;28;20028;-81
2023/04/07 08:27:20;;;;;;;12.90;4.00;;;;;;;;;;5033075;28;20033;-83
2023/04/07 08:30:07;;;;;;;11.02;3.63;;;;;;;;;;5031783;28;20072;-81
2023/04/07 08:32:40;;;;;;;8.38;3.28;;;;;;;;;;5031743;28;20545;-82
2023/04/07 08:35:06;;;;;;;6.18;3.00;;;;;;;;;;5031781;28;20395;-81
2023/04/07 08:37:33;;;;;;;13.18;4.05;;;;;;;;;;5031775;28;20049;-82
2023/04/07 08:40:00;;;;;;;8.45;3.25;;;;;;;;;;5031093;28;20034;-82
2023/04/07 08:42:30;;;;;;;7.28;3.00;;;;;;;;;;5031571;28;20048;-83
2023/04/07 08:44:57;;;;;;;9.48;3.33;;;;;;;;;;5031941;28;20025;-82
2023/04/07 08:47:28;;;;;;;8.68;3.80;;;;;;;;;;5031586;28;20493;-82
2023/04/07 08:49:57;;;;;;;12.05;4.38;;;;;;;;;;5031587;28;20502;-83
2023/04/07 08:52:26;;;;;;;11.07;3.50;;;;;;;;;;5031411;28;20029;-82
2023/04/07 08:54:52;;;;;;;9.05;3.65;;;;;;;;;;5031388;28;20025;-83
2023/04/07 08:57:18;;;;;;;9.75;3.47;;;;;;;;;;5031377;28;20036;-81
2023/04/07 08:59:47;;;;;;;9.10;3.78;;;;;;;;;;5030250;28;20030;-82
2023/04/07 09:02:14;;;;;;;8.18;4.13;;;;;;;;;;5031226;28;20025;-81
2023/04/07 09:04:41;;;;;;;10.10;3.35;;;;;;;;;;5031564;28;20064;-83
2023/04/07 09:07:07;;;;;;;5.80;2.83;;;;;;;;;;5031508;28;20033;-81
2023/04/07 09:09:33;;;;;;;19.90;5.30;;;;;;;;;;5031641;28;20018;-83
2023/04/07 09:11:59;;;;;;;7.30;2.95;;;;;;;;;;5031663;28;20280;-82
2023/04/07 09:14:25;;;;;;;8.43;2.90;;;;;;;;;;5031216;28;20053;-82
2023/04/07 09:16:51;;;;;;;6.78;2.83;;;;;;;;;;5031696;28;20087;-82
2023/04/07 09:19:17;;;;;;;22.15;6.00;;;;;;;;;;5032412;28;20176;-82
2023/04/07 09:21:48;;;;;;;9.75;3.17;;;;;;;;;;5036249;28;20480;-82
2023/04/07 09:24:27;;;;;;;11.45;4.35;;;;;;;;;;5038945;28;20025;-81
2023/04/07 09:27:14;;;;;;;5.55;2.65;;;;;;;;;;5034803;28;20026;-83
2023/04/07 09:29:41;;;;;;;7.20;2.65;;;;;;;;;;5038387;28;20052;-82
2023/04/07 09:32:07;;;;;;;7.60;2.78;;;;;;;;;;5033520;28;20029;-81
2023/04/07 09:34:34;;;;;;;4.90;2.30;;;;;;;;;;5035731;28;20095;-81
2023/04/07 09:37:00;;;;;;;16.40;3.92;;;;;;;;;;5032588;28;20095;-83
2023/04/07 09:39:27;;;;;;;4.15;1.85;;;;;;;;;;5032539;28;20520;-81
2023/04/07 09:41:53;;;;;;;7.30;2.58;;;;;;;;;;5031855;28;20076;-83
2023/04/07 09:44:19;;;;;;;8.07;1.80;;;;;;;;;;5031861;28;20509;-84
2023/04/07 09:46:51;;;;;;;3.65;1.60;;;;;;;;;;5032142;28;20030;-81
2023/04/07 09:49:19;;;;;;;;;;;;;;;;;;5032018;28;20048;-83
2023/04/07 09:51:58;;;;;;;4.05;1.70;;;;;;;;;;5032207;28;20000;-80
2023/04/07 09:54:34;;;;;;;12.88;2.13;;;;;;;;;;5034796;28;20026;-80
2023/04/07 09:57:01;;;;;;;2.40;1.65;;;;;;;;;;5036519;28;20065;-80
2023/04/07 09:59:28;;;;;;;3.50;1.40;;;;;;;;;;5037020;28;20491;-81
2023/04/07 10:01:55;;;;;;;2.40;1.40;;;;;;;;;;5035457;28;20076;-78
2023/04/07 10:04:21;;;;;;;2.63;1.83;;;;;;;;;;5035795;28;20030;-81
2023/04/07 10:06:47;;;;;;;2.55;1.65;;;;;;;;;;5035442;28;20071;-83
2023/04/07 10:09:14;;;;;;;4.00;1.88;;;;;;;;;;5034981;28;20029;-78
2023/04/07 10:11:43;;;;;;;4.20;1.90;;;;;;;;;;5034166;28;20493;-77
2023/04/07 10:14:10;;;;;;;3.53;1.83;;;;;;;;;;5033955;28;20021;-77
2023/04/07 10:16:39;;;;;;;3.10;1.63;;;;;;;;;;5033784;28;20025;-78
2023/04/07 10:19:05;;;;;;;2.65;1.40;;;;;;;;;;5033796;28;20018;-76
2023/04/07 10:21:36;;;;;;;4.93;1.20;;;;;;;;;;5034391;28;20044;-78
2023/04/07 10:24:09;;;;;;;3.22;1.10;;;;;;;;;;5034511;28;20041;-77
2023/04/07 10:26:36;;;;;;;5.38;1.40;;;;;;;;;;5033618;28;20395;-76
2023/04/07 10:29:06;;;;;;;2.42;1.20;;;;;;;;;;5033462;28;20032;-77
2023/04/07 10:31:32;;;;;;;3.28;1.40;;;;;;;;;;5033381;28;20036;-78
2023/04/07 10:33:58;;;;;;;3.85;1.20;;;;;;;;;;5033249;28;20374;-76
2023/04/07 10:36:24;;;;;;;2.05;1.00;;;;;;;;;;5033303;28;20021;-76
2023/04/07 10:39:08;;;;;;;1.60;1.17;;;;;;;;;;5033295;28;20017;-77
2023/04/07 10:41:36;;;;;;;1.77;0.80;;;;;;;;;;5033031;28;20053;-78
2023/04/07 10:44:04;;;;;;;1.98;1.00;;;;;;;;;;5033104;28;20064;-78
2023/04/07 10:46:56;;;;;;;1.70;1.20;;;;;;;;;;5033189;28;20014;-77
2023/04/07 10:49:22;;;;;;;;;;;;;;;;;;5033479;28;20486;-77
2023/04/07 10:52:06;;;;;;;1.65;0.80;;;;;;;;;;5033074;28;19905;-78
2023/04/07 10:54:32;;;;;;;3.55;1.00;;;;;;;;;;5031760;28;20116;-77
2023/04/07 10:57:01;;;;;;;5.53;1.20;;;;;;;;;;5032754;28;20134;-77
2023/04/07 10:59:28;;;;;;;1.98;0.90;;;;;;;;;;5032657;28;20025;-78
2023/04/07 11:02:16;;;;;;;1.48;0.68;;;;;;;;;;5033031;28;20021;-77
2023/04/07 11:04:43;;;;;;;1.50;0.93;;;;;;;;;;5032745;28;20494;-78
2023/04/07 11:07:10;;;;;;;0.90;0.80;;;;;;;;;;5032810;28;20025;-78
2023/04/07 11:09:36;;;;;;;3.53;1.00;;;;;;;;;;5032678;28;20025;-78
2023/04/07 11:12:03;;;;;;;2.58;0.90;;;;;;;;;;5032626;28;20029;-77
2023/04/07 11:14:30;;;;;;;2.17;1.15;;;;;;;;;;5032336;28;20017;-77
2023/04/07 11:16:56;;;;;;;2.00;0.90;;;;;;;;;;5032763;28;20079;-78
2023/04/07 11:19:23;;;;;;;5.07;1.10;;;;;;;;;;5032441;28;20026;-75
2023/04/07 11:21:49;;;;;;;1.45;0.85;;;;;;;;;;5032331;28;20029;-76
2023/04/07 11:24:34;;;;;;;5.35;1.25;;;;;;;;;;5032470;28;20025;-75
2023/04/07 11:27:00;;;;;;;3.47;1.10;;;;;;;;;;5032228;28;20018;-79
2023/04/07 11:29:33;;;;;;;3.92;0.90;;;;;;;;;;5032443;28;20029;-78
2023/04/07 11:32:00;;;;;;;2.60;0.93;;;;;;;;;;5032170;28;20367;-76
2023/04/07 11:34:30;;;;;;;2.00;0.70;;;;;;;;;;5032248;28;20030;-77
2023/04/07 11:36:58;;;;;;;3.58;0.80;;;;;;;;;;5032211;28;20036;-77
2023/04/07 11:39:32;;;;;;;1.35;0.77;;;;;;;;;;5032307;28;20398;-80
2023/04/07 11:41:58;;;;;;;2.42;1.13;;;;;;;;;;5031832;28;20497;-77
2023/04/07 11:44:25;;;;;;;1.88;0.95;;;;;;;;;;5031880;28;20037;-77
2023/04/07 11:46:53;;;;;;;2.95;0.90;;;;;;;;;;5032495;28;20024;-79
2023/04/07 11:49:19;;;;;;;4.78;1.10;;;;;;;;;;5030436;28;20028;-78
2023/04/07 11:51:45;;;;;;;2.13;0.70;;;;;;;;;;5032274;28;20076;-76
2023/04/07 11:54:12;;;;;;;2.47;1.02;;;;;;;;;;5031994;28;20112;-76
2023/04/07 11:56:45;;;;;;;5.15;1.42;;;;;;;;;;5032035;28;20280;-75
2023/04/07 11:59:21;;;;;;;2.65;1.38;;;;;;;;;;5031748;28;20017;-75
2023/04/07 12:01:48;;;;;;;1.98;1.05;;;;;;;;;;5031642;28;20083;-76
2023/04/07 12:04:17;;;;;;;5.18;1.48;;;;;;;;;;5031950;28;20481;-76
2023/04/07 12:06:44;;;;;;;2.05;1.38;;;;;;;;;;5031775;28;20528;-76
2023/04/07 12:09:28;;;;;;;2.67;0.95;;;;;;;;;;5031770;28;20248;-76
2023/04/07 12:11:55;;;;;;;1.20;1.10;;;;;;;;;;5031493;28;20382;-76
2023/04/07 12:14:21;;;;;;;2.78;1.25;;;;;;;;;;5031371;28;20553;-76
2023/04/07 12:16:47;;;;;;;3.83;1.70;;;;;;;;;;5030136;28;20026;-76
2023/04/07 12:19:13;;;;;;;3.53;1.80;;;;;;;;;;5032017;28;20037;-76
2023/04/07 12:21:39;;;;;;;6.15;2.42;;;;;;;;;;5031492;28;20033;-76
2023/04/07 12:24:05;;;;;;;7.88;3.38;;;;;;;;;;5031784;28;20167;-77
2023/04/07 12:26:31;;;;;;;5.60;2.90;;;;;;;;;;5030212;28;20029;-76
2023/04/07 12:29:03;;;;;;;4.55;2.20;;;;;;;;;;5031110;28;20045;-75
2023/04/07 12:31:30;;;;;;;3.13;2.22;;;;;;;;;;5031578;28;20048;-75
2023/04/07 12:33:56;;;;;;;3.40;1.33;;;;;;;;;;5031466;28;20064;-76
2023/04/07 12:36:22;;;;;;;3.42;1.50;;;;;;;;;;5031419;28;20017;-77
2023/04/07 12:38:48;;;;;;;6.13;2.22;;;;;;;;;;5031009;28;20048;-77
2023/04/07 12:41:14;;;;;;;2.90;1.30;;;;;;;;;;5031005;28;20057;-76
2023/04/07 12:43:40;;;;;;;3.80;2.13;;;;;;;;;;5031080;28;20053;-76
2023/04/07 12:46:06;;;;;;;2.83;1.27;;;;;;;;;;5031303;28;20117;-76
2023/04/07 12:48:32;;;;;;;1.88;1.20;;;;;;;;;;5031536;28;20072;-82
2023/04/07 12:50:58;;;;;;;3.47;1.80;;;;;;;;;;5031100;28;20048;-76
2023/04/07 12:53:24;;;;;;;4.07;1.30;;;;;;;;;;5031489;28;20108;-76
2023/04/07 12:55:50;;;;;;;4.40;1.50;;;;;;;;;;5035606;28;20033;-83
2023/04/07 12:58:17;;;;;;;2.03;1.25;;;;;;;;;;5031140;28;20025;-77
2023/04/07 13:00:45;;;;;;;4.95;1.92;;;;;;;;;;5031164;28;20291;-76
2023/04/07 13:03:11;;;;;;;8.05;4.35;;;;;;;;;;5031216;28;20493;-76
2023/04/07 13:05:37;;;;;;;2.95;1.60;;;;;;;;;;5031001;28;20482;-75
2023/04/07 13:08:04;;;;;;;5.43;2.05;;;;;;;;;;5030820;28;20033;-75
2023/04/07 13:10:30;;;;;;;4.93;3.05;;;;;;;;;;5030821;28;20037;-79
2023/04/07 13:12:56;;;;;;;6.18;3.70;;;;;;;;;;5035807;28;20021;-77
2023/04/07 13:15:23;;;;;;;4.32;1.90;;;;;;;;;;5031221;28;20101;-77
2023/04/07 13:17:49;;;;;;;4.55;1.60;;;;;;;;;;5031033;28;20022;-85
2023/04/07 13:20:15;;;;;;;2.85;1.58;;;;;;;;;;5031167;28;20025;-76
2023/04/07 13:22:41;;;;;;;3.13;1.52;;;;;;;;;;5030866;28;20043;-80
2023/04/07 13:25:08;;;;;;;3.72;1.88;;;;;;;;;;5030709;28;20115;-77
2023/04/07 13:27:34;;;;;;;7.13;3.80;;;;;;;;;;5032805;28;20029;-77
2023/04/07 13:30:00;;;;;;;9.43;5.75;;;;;;;;;;5034574;28;20021;-81
2023/04/07 13:32:26;;;;;;;5.90;2.70;;;;;;;;;;5034934;28;20041;-79
2023/04/07 13:34:52;;;;;;;4.15;1.90;;;;;;;;;;5033192;28;20021;-78
2023/04/07 13:37:18;;;;;;;4.05;1.27;;;;;;;;;;5034323;28;20120;-76
2023/04/07 13:39:45;;;;;;;2.53;1.65;;;;;;;;;;5034341;28;20013;-78
2023/04/07 13:42:11;;;;;;;2.95;1.45;;;;;;;;;;5034188;28;20544;-78
2023/04/07 13:44:38;;;;;;;5.88;2.75;;;;;;;;;;5034613;28;20072;-77
2023/04/07 13:47:04;;;;;;;5.07;2.00;;;;;;;;;;5034443;28;20427;-76
2023/04/07 13:49:30;;;;;;;8.55;4.97;;;;;;;;;;5034251;28;20540;-77
2023/04/07 13:51:56;;;;;;;7.80;4.75;;;;;;;;;;5034098;28;20032;-78
2023/04/07 13:54:22;;;;;;;6.70;3.38;;;;;;;;;;5033327;28;20104;-76
2023/04/07 13:56:49;;;;;;;5.15;2.00;;;;;;;;;;5034258;28;20018;-79
2023/04/07 13:59:15;;;;;;;2.53;1.77;;;;;;;;;;5033945;28;20100;-78
2023/04/07 14:01:41;;;;;;;4.20;1.80;;;;;;;;;;5034077;28;20080;-78
2023/04/07 14:04:07;;;;;;;4.50;1.85;;;;;;;;;;5033882;28;20029;-76
2023/04/07 14:06:35;;;;;;;2.85;1.70;;;;;;;;;;5035121;28;20030;-76
2023/04/07 14:09:02;;;;;;;3.90;1.90;;;;;;;;;;5033929;28;20025;-75
2023/04/07 14:11:28;;;;;;;3.38;1.83;;;;;;;;;;5033826;28;20013;-77
2023/04/07 14:13:57;;;;;;;3.38;1.60;;;;;;;;;;5033971;28;20116;-76
2023/04/07 14:16:24;;;;;;;4.00;1.30;;;;;;;;;;5033743;28;20100;-76
2023/04/07 14:18:50;;;;;;;5.18;2.00;;;;;;;;;;5033647;28;20433;-83
2023/04/07 14:21:16;;;;;;;3.50;1.77;;;;;;;;;;5033698;28;20021;-77
2023/04/07 14:23:42;;;;;;;3.03;1.55;;;;;;;;;;5033634;28;20040;-83
2023/04/07 14:26:10;;;;;;;4.40;1.73;;;;;;;;;;5033929;28;20363;-76
2023/04/07 14:28:36;;;;;;;3.28;1.58;;;;;;;;;;5033376;28;20029;-83
2023/04/07 14:31:02;;;;;;;3.28;2.00;;;;;;;;;;5033678;28;20021;-76
2023/04/07 14:33:28;;;;;;;4.13;1.95;;;;;;;;;;5033503;28;20030;-77
2023/04/07 14:35:54;;;;;;;3.97;1.67;;;;;;;;;;5033571;28;20466;-76
2023/04/07 14:38:24;;;;;;;3.60;1.80;;;;;;;;;;5032805;28;20462;-77
2023/04/07 14:40:53;;;;;;;6.40;2.17;;;;;;;;;;5033452;28;20021;-76